createdAt,value
2022-07-28T00:00:09.392Z,1.00
2022-07-28T00:02:37.128Z,1.00
2022-07-28T00:05:05.292Z,1.00
2022-07-28T00:07:32.609Z,1.00
2022-07-28T00:10:00.825Z,1.00
2022-07-28T00:12:28.449Z,1.00
2022-07-28T00:14:55.584Z,1.00
2022-07-28T00:17:22.601Z,1.00
2022-07-28T00:19:50.862Z,1.00
2022-07-28T00:22:18.703Z,1.00
2022-07-28T00:24:45.884Z,1.00
2022-07-28T00:27:19.179Z,1.00
2022-07-28T00:29:50.540Z,1.00
2022-07-28T00:32:19.403Z,1.00
2022-07-28T00:34:47.122Z,1.00
2022-07-28T00:37:14.939Z,1.00
2022-07-28T00:39:42.941Z,1.00
2022-07-28T00:42:10.214Z,1.00
2022-07-28T00:44:42.006Z,1.00
2022-07-28T00:47:09.235Z,1.00
2022-07-28T00:49:36.408Z,1.00
2022-07-28T00:52:05.129Z,1.00
2022-07-28T00:54:33.445Z,1.00
2022-07-28T00:57:00.564Z,1.00
2022-07-28T00:59:27.608Z,1.00
2022-07-28T01:01:56.057Z,1.00
2022-07-28T01:04:24.462Z,1.00
2022-07-28T01:07:19.190Z,1.00
2022-07-28T01:10:04.431Z,1.00
2022-07-28T01:12:40.365Z,1.00
2022-07-28T01:15:25.446Z,1.00
2022-07-28T01:17:58.594Z,1.00
2022-07-28T01:20:39.820Z,1.00
2022-07-28T01:23:12.798Z,1.00
2022-07-28T01:26:07.126Z,5.30
2022-07-28T01:29:04.902Z,14.80
2022-07-28T01:31:39.598Z,33.00
2022-07-28T01:34:10.907Z,37.80
2022-07-28T01:36:57.179Z,35.60
2022-07-28T01:39:32.756Z,31.20
2022-07-28T01:42:02.886Z,29.70
2022-07-28T01:44:32.957Z,33.70
2022-07-28T01:47:02.272Z,33.30
2022-07-28T01:49:30.921Z,41.50
2022-07-28T01:51:59.068Z,51.00
2022-07-28T01:54:29.074Z,59.60
2022-07-28T01:56:57.671Z,72.40
2022-07-28T01:59:26.376Z,74.60
2022-07-28T02:01:54.637Z,74.60
2022-07-28T02:04:24.841Z,74.70
2022-07-28T02:06:54.689Z,74.60
2022-07-28T02:09:23.309Z,62.60
2022-07-28T02:11:53.506Z,56.20
2022-07-28T02:14:27.144Z,48.90
2022-07-28T02:17:10.548Z,48.20
2022-07-28T02:19:39.658Z,47.90
2022-07-28T02:22:07.759Z,50.10
2022-07-28T02:24:35.935Z,56.00
2022-07-28T02:27:18.965Z,62.40
2022-07-28T02:29:59.365Z,59.30
2022-07-28T02:32:49.360Z,54.80
2022-07-28T02:35:48.898Z,49.60
2022-07-28T02:38:23.127Z,43.80
2022-07-28T02:40:54.622Z,35.30
2022-07-28T02:43:48.937Z,29.00
2022-07-28T02:46:18.655Z,24.80
2022-07-28T02:48:49.826Z,20.70
2022-07-28T02:51:18.812Z,16.20
2022-07-28T02:53:47.925Z,15.60
2022-07-28T02:56:18.069Z,11.40
2022-07-28T02:58:46.101Z,11.60
2022-07-28T03:01:14.145Z,9.00
2022-07-28T03:03:44.013Z,6.50
2022-07-28T03:06:11.455Z,8.40
2022-07-28T03:08:38.844Z,5.50
2022-07-28T03:11:10.724Z,7.00
2022-07-28T03:13:38.359Z,9.50
2022-07-28T03:16:06.517Z,3.50
2022-07-28T03:18:34.281Z,1.00
2022-07-28T03:21:01.773Z,1.00
2022-07-28T03:23:43.460Z,5.60
2022-07-28T03:26:20.015Z,11.80
2022-07-28T03:28:48.973Z,14.80
2022-07-28T03:31:17.000Z,19.40
2022-07-28T03:33:44.042Z,28.30
2022-07-28T03:36:14.720Z,34.30
2022-07-28T03:38:51.720Z,34.20
2022-07-28T03:41:21.006Z,30.30
2022-07-28T03:43:49.385Z,28.60
2022-07-28T03:46:16.970Z,32.00
2022-07-28T03:48:44.923Z,53.30
2022-07-28T03:51:12.010Z,64.10
2022-07-28T03:53:40.506Z,74.10
2022-07-28T03:56:07.662Z,73.90
2022-07-28T03:58:34.722Z,74.00
2022-07-28T04:01:01.748Z,88.30
2022-07-28T04:03:42.338Z,93.00
2022-07-28T04:06:13.046Z,96.10
2022-07-28T04:08:40.205Z,99.90
2022-07-28T04:11:07.756Z,99.90
2022-07-28T04:13:37.341Z,99.90
2022-07-28T04:16:05.776Z,99.90
2022-07-28T04:18:33.040Z,99.90
2022-07-28T04:20:59.957Z,99.90
2022-07-28T04:23:27.453Z,99.90
2022-07-28T04:25:54.639Z,99.90
2022-07-28T04:28:21.533Z,99.90
2022-07-28T04:30:49.277Z,99.90
2022-07-28T04:33:18.691Z,99.90
2022-07-28T04:35:47.135Z,91.40
2022-07-28T04:38:15.139Z,75.00
2022-07-28T04:40:42.858Z,73.50
2022-07-28T04:43:10.486Z,71.20
2022-07-28T04:45:37.998Z,74.80
2022-07-28T04:48:06.050Z,73.90
2022-07-28T04:50:33.148Z,74.30
2022-07-28T04:53:00.400Z,70.20
2022-07-28T04:55:27.666Z,61.60
2022-07-28T04:57:54.758Z,52.60
2022-07-28T05:00:22.799Z,46.50
2022-07-28T05:02:51.659Z,34.70
2022-07-28T05:05:18.813Z,25.70
2022-07-28T05:07:45.924Z,20.00
2022-07-28T05:10:13.023Z,9.10
2022-07-28T05:12:40.057Z,3.10
2022-07-28T05:15:08.517Z,1.10
2022-07-28T05:17:37.253Z,1.00
2022-07-28T05:20:05.746Z,1.00
2022-07-28T05:22:47.373Z,1.00
2022-07-28T05:25:20.248Z,1.00
2022-07-28T05:27:48.262Z,1.00
2022-07-28T05:30:16.420Z,1.00
2022-07-28T05:32:45.568Z,1.00
2022-07-28T05:35:13.436Z,1.00
2022-07-28T05:37:44.052Z,1.00
2022-07-28T05:40:16.073Z,1.00
2022-07-28T05:42:44.168Z,1.00
2022-07-28T05:45:16.934Z,1.00
2022-07-28T05:47:50.184Z,1.00
2022-07-28T05:50:19.250Z,1.00
2022-07-28T05:52:47.924Z,1.00
2022-07-28T05:55:16.450Z,1.00
2022-07-28T05:57:44.558Z,1.00
2022-07-28T06:00:15.020Z,1.00
2022-07-28T06:02:45.893Z,1.00
2022-07-28T06:05:13.814Z,1.00
2022-07-28T06:07:43.723Z,1.00
2022-07-28T06:10:18.106Z,1.00
2022-07-28T06:12:47.865Z,1.00
2022-07-28T06:15:21.790Z,1.00
2022-07-28T06:17:52.762Z,1.00
2022-07-28T06:20:21.994Z,1.00
2022-07-28T06:22:50.871Z,1.00
2022-07-28T06:25:23.310Z,1.00
2022-07-28T06:27:57.040Z,1.00
2022-07-28T06:30:24.742Z,1.00
2022-07-28T06:32:52.557Z,1.00
2022-07-28T06:35:20.062Z,1.00
2022-07-28T06:37:49.054Z,1.00
2022-07-28T06:40:19.224Z,1.00
2022-07-28T06:42:49.939Z,1.00
2022-07-28T06:45:20.724Z,1.00
2022-07-28T06:47:49.829Z,1.00
2022-07-28T06:50:26.035Z,1.00
2022-07-28T06:52:58.733Z,1.00
2022-07-28T06:55:34.438Z,1.40
2022-07-28T06:58:02.510Z,14.30
2022-07-28T07:00:30.164Z,29.90
2022-07-28T07:03:00.921Z,50.00
2022-07-28T07:05:32.102Z,61.30
2022-07-28T07:08:00.277Z,76.50
2022-07-28T07:10:27.458Z,76.30
2022-07-28T07:12:54.904Z,76.80
2022-07-28T07:15:21.914Z,86.10
2022-07-28T07:17:48.941Z,76.50
2022-07-28T07:20:17.367Z,74.10
2022-07-28T07:22:46.692Z,47.50
2022-07-28T07:25:17.316Z,30.00
2022-07-28T07:27:44.824Z,17.10
2022-07-28T07:30:12.523Z,8.90
2022-07-28T07:32:39.481Z,1.00
2022-07-28T07:35:07.346Z,1.00
2022-07-28T07:37:35.089Z,1.00
2022-07-28T07:40:04.226Z,1.00
2022-07-28T07:42:31.453Z,1.00
2022-07-28T07:44:58.521Z,1.00
2022-07-28T07:47:25.467Z,1.00
2022-07-28T07:49:52.932Z,1.00
2022-07-28T07:52:20.479Z,1.00
2022-07-28T07:54:47.471Z,1.00
2022-07-28T07:57:14.605Z,1.00
2022-07-28T07:59:44.587Z,1.00
2022-07-28T08:02:11.589Z,1.00
2022-07-28T08:04:40.387Z,1.00
2022-07-28T08:07:07.418Z,1.00
2022-07-28T08:09:35.514Z,1.00
2022-07-28T08:12:02.621Z,1.00
2022-07-28T08:14:29.899Z,1.00
2022-07-28T08:16:58.758Z,1.00
2022-07-28T08:19:26.020Z,1.00
2022-07-28T08:21:53.862Z,1.00
2022-07-28T08:24:32.696Z,1.00
2022-07-28T08:27:00.468Z,1.00
2022-07-28T08:29:27.456Z,1.00
2022-07-28T08:31:54.649Z,1.00
2022-07-28T08:34:31.574Z,1.00
2022-07-28T08:37:03.205Z,1.00
2022-07-28T08:39:35.022Z,1.00
2022-07-28T08:42:17.468Z,1.00
2022-07-28T08:45:04.318Z,1.00
2022-07-28T08:47:58.699Z,1.00
2022-07-28T08:50:24.578Z,1.00
2022-07-28T08:52:53.009Z,1.00
2022-07-28T08:55:25.156Z,1.00
2022-07-28T09:00:27.700Z,1.00
2022-07-28T09:02:56.089Z,1.00
2022-07-28T09:05:24.292Z,1.00
2022-07-28T09:07:54.921Z,1.00
2022-07-28T09:10:22.765Z,1.00
2022-07-28T09:12:49.783Z,1.00
2022-07-28T09:15:16.698Z,1.00
2022-07-28T09:17:44.281Z,1.00
2022-07-28T09:20:12.313Z,1.00
2022-07-28T09:23:02.514Z,1.00
2022-07-28T09:25:30.867Z,1.00
2022-07-28T09:28:09.796Z,1.00
2022-07-28T09:30:53.920Z,1.00
2022-07-28T09:33:40.925Z,1.00
2022-07-28T09:36:18.441Z,1.00
2022-07-28T09:38:45.466Z,1.00
2022-07-28T09:41:12.414Z,1.00
2022-07-28T09:43:44.577Z,1.00
2022-07-28T09:46:19.909Z,1.00
2022-07-28T09:48:50.702Z,1.00
2022-07-28T09:51:33.492Z,1.00
2022-07-28T09:54:20.234Z,1.00
2022-07-28T09:56:47.097Z,1.00
2022-07-28T09:59:16.180Z,1.00
2022-07-28T10:02:02.169Z,1.00
2022-07-28T10:04:37.710Z,1.00
2022-07-28T10:07:17.280Z,1.00
2022-07-28T10:09:57.717Z,1.00
2022-07-28T10:12:27.078Z,1.00
2022-07-28T10:14:56.271Z,1.00
2022-07-28T10:17:32.619Z,1.00
2022-07-28T10:20:07.075Z,1.00
2022-07-28T10:22:42.912Z,1.00
2022-07-28T10:25:12.993Z,1.00
2022-07-28T10:27:45.275Z,1.00
2022-07-28T10:30:13.371Z,1.00
2022-07-28T10:32:43.376Z,1.00
2022-07-28T10:35:16.183Z,1.00
2022-07-28T10:38:02.756Z,1.00
2022-07-28T10:40:36.726Z,1.00
2022-07-28T10:43:04.258Z,1.00
2022-07-28T10:45:55.271Z,1.00
2022-07-28T10:48:23.879Z,1.00
2022-07-28T10:50:51.988Z,1.00
2022-07-28T10:53:39.502Z,1.00
2022-07-28T10:56:24.154Z,1.00
2022-07-28T10:59:28.901Z,1.00
2022-07-28T11:01:56.241Z,1.00
2022-07-28T11:04:42.200Z,1.00
2022-07-28T11:07:11.042Z,1.00
2022-07-28T11:09:38.096Z,99.90
2022-07-28T11:12:05.618Z,99.90
2022-07-28T11:14:39.346Z,99.90
2022-07-28T11:17:10.882Z,99.90
2022-07-28T11:20:00.839Z,99.90
2022-07-28T11:22:34.526Z,99.90
2022-07-28T11:25:19.755Z,99.90
2022-07-28T11:27:52.228Z,99.90
2022-07-28T11:30:19.735Z,99.90
2022-07-28T11:32:55.439Z,99.90
2022-07-28T11:35:27.042Z,1.00
2022-07-28T11:38:03.409Z,1.00
2022-07-28T11:40:31.164Z,1.00
2022-07-28T11:43:37.942Z,99.90
2022-07-28T11:46:10.076Z,99.90
2022-07-28T11:48:40.091Z,99.90
2022-07-28T11:51:07.091Z,99.90
2022-07-28T11:53:37.734Z,99.90
2022-07-28T11:56:11.036Z,99.90
2022-07-28T11:58:39.148Z,99.90
2022-07-28T12:01:18.510Z,99.90
2022-07-28T12:03:53.949Z,99.90
2022-07-28T12:06:29.712Z,99.90
2022-07-28T12:09:08.427Z,99.90
2022-07-28T12:11:37.435Z,99.90
2022-07-28T12:14:13.572Z,99.90
2022-07-28T12:16:43.161Z,99.90
2022-07-28T12:19:11.916Z,99.90
2022-07-28T12:21:46.138Z,99.90
2022-07-28T12:24:19.962Z,99.90
2022-07-28T12:26:50.357Z,99.90
2022-07-28T12:29:19.724Z,99.90
2022-07-28T12:31:59.722Z,99.90
2022-07-28T12:34:28.820Z,99.90
2022-07-28T12:36:59.376Z,99.90
2022-07-28T12:39:26.915Z,99.90
2022-07-28T12:42:13.235Z,99.90
2022-07-28T12:44:42.254Z,99.90
2022-07-28T12:47:12.352Z,99.90
2022-07-28T12:49:42.281Z,99.90
2022-07-28T12:52:24.318Z,1.00
2022-07-28T12:54:55.463Z,1.00
2022-07-28T12:57:49.828Z,1.00
2022-07-28T13:00:20.258Z,1.00
2022-07-28T13:02:48.465Z,1.00
2022-07-28T13:05:53.844Z,1.00
2022-07-28T13:08:21.725Z,1.00
2022-07-28T13:10:51.571Z,1.00
2022-07-28T13:13:19.587Z,1.00
2022-07-28T13:16:17.410Z,1.00
2022-07-28T13:18:59.792Z,1.00
2022-07-28T13:21:56.978Z,1.00
2022-07-28T13:24:28.478Z,1.00
2022-07-28T13:26:58.349Z,1.00
2022-07-28T13:29:25.915Z,1.00
2022-07-28T13:31:55.160Z,1.00
2022-07-28T13:34:22.320Z,1.00
2022-07-28T13:36:50.503Z,1.00
2022-07-28T13:39:17.541Z,1.00
2022-07-28T13:41:57.828Z,1.00
2022-07-28T13:44:27.749Z,1.00
2022-07-28T13:46:56.561Z,1.00
2022-07-28T13:49:24.059Z,1.00
2022-07-28T13:51:51.729Z,1.00
2022-07-28T13:54:20.328Z,1.00
2022-07-28T13:56:47.796Z,1.00
2022-07-28T13:59:14.760Z,1.00
2022-07-28T14:01:42.760Z,99.90
2022-07-28T14:04:16.941Z,99.90
2022-07-28T14:06:45.555Z,99.90
2022-07-28T14:09:17.910Z,99.90
2022-07-28T14:11:50.160Z,1.00
2022-07-28T14:14:25.522Z,1.00
2022-07-28T14:16:54.431Z,1.00
2022-07-28T14:19:39.069Z,1.00
2022-07-28T14:22:13.411Z,1.00
2022-07-28T14:24:42.394Z,1.00
2022-07-28T14:27:11.604Z,1.00
2022-07-28T14:29:39.469Z,1.00
2022-07-28T14:32:07.151Z,1.00
2022-07-28T14:34:35.153Z,1.00
2022-07-28T14:37:03.416Z,1.00
2022-07-28T14:39:36.127Z,1.00
2022-07-28T14:42:04.266Z,1.00
2022-07-28T14:44:31.785Z,1.00
2022-07-28T14:46:58.754Z,1.00
2022-07-28T14:49:25.796Z,1.00
2022-07-28T14:51:53.389Z,1.00
2022-07-28T14:54:20.352Z,1.00
2022-07-28T14:56:47.341Z,1.00
2022-07-28T14:59:14.284Z,1.00
2022-07-28T15:01:41.873Z,1.00
2022-07-28T15:04:10.282Z,1.00
2022-07-28T15:06:37.195Z,1.00
2022-07-28T15:09:04.461Z,1.00
2022-07-28T15:11:32.218Z,1.00
2022-07-28T15:14:00.165Z,1.00
2022-07-28T15:16:27.204Z,1.00
2022-07-28T15:18:55.542Z,1.00
2022-07-28T15:21:22.525Z,1.00
2022-07-28T15:23:49.479Z,1.00
2022-07-28T15:26:16.412Z,1.00
2022-07-28T15:28:44.141Z,1.00
2022-07-28T15:31:11.370Z,1.00
2022-07-28T15:33:47.886Z,1.00
2022-07-28T15:36:15.845Z,1.00
2022-07-28T15:38:47.535Z,1.00
2022-07-28T15:41:16.618Z,1.00
2022-07-28T15:43:43.770Z,1.00
2022-07-28T15:46:13.323Z,1.00
2022-07-28T15:48:43.847Z,1.00
2022-07-28T15:51:11.375Z,1.00
2022-07-28T15:53:38.724Z,1.00
2022-07-28T15:56:06.425Z,1.00
2022-07-28T15:58:33.474Z,1.00
2022-07-28T16:01:01.802Z,1.00
2022-07-28T16:03:30.906Z,1.00
2022-07-28T16:05:59.016Z,1.00
2022-07-28T16:08:26.582Z,1.00
2022-07-28T16:10:54.332Z,1.00
2022-07-28T16:13:36.327Z,1.00
2022-07-28T16:16:08.262Z,1.00
2022-07-28T16:18:36.685Z,1.00
2022-07-28T16:21:04.250Z,1.00
2022-07-28T16:23:32.346Z,1.00
2022-07-28T16:25:59.421Z,1.00
2022-07-28T16:28:26.790Z,1.00
2022-07-28T16:30:54.232Z,1.00
2022-07-28T16:33:21.371Z,1.00
2022-07-28T16:35:48.300Z,1.00
2022-07-28T16:38:15.353Z,1.00
2022-07-28T16:40:42.273Z,1.00
2022-07-28T16:43:09.998Z,1.00
2022-07-28T16:45:37.080Z,1.00
2022-07-28T16:48:05.018Z,1.00
2022-07-28T16:50:32.883Z,1.00
2022-07-28T16:53:00.634Z,1.00
2022-07-28T16:55:31.208Z,1.00
2022-07-28T16:57:58.231Z,1.00
2022-07-28T17:00:26.938Z,1.00
2022-07-28T17:02:53.858Z,1.00
2022-07-28T17:05:21.055Z,1.00
2022-07-28T17:07:48.058Z,1.00
2022-07-28T17:10:20.524Z,1.00
2022-07-28T17:12:49.778Z,1.00
2022-07-28T17:15:20.095Z,1.00
2022-07-28T17:17:54.569Z,1.00
2022-07-28T17:20:22.793Z,1.00
2022-07-28T17:22:49.712Z,1.00
2022-07-28T17:28:05.275Z,1.00
2022-07-28T17:30:33.511Z,1.00
2022-07-28T17:33:08.123Z,1.00
2022-07-28T17:35:37.007Z,1.00
2022-07-28T17:38:06.941Z,1.00
2022-07-28T17:40:34.194Z,1.00
2022-07-28T17:43:01.225Z,1.00
2022-07-28T17:45:28.217Z,1.00
2022-07-28T17:47:55.184Z,1.00
2022-07-28T17:50:22.270Z,1.00
2022-07-28T17:52:49.225Z,1.00
2022-07-28T17:55:37.477Z,1.00
2022-07-28T17:58:27.727Z,1.00
2022-07-28T18:01:10.903Z,1.00
2022-07-28T18:03:57.648Z,1.00
2022-07-28T18:06:30.747Z,1.00
2022-07-28T18:09:04.810Z,1.00
2022-07-28T18:11:57.406Z,1.00
2022-07-28T18:14:30.526Z,1.00
2022-07-28T18:16:58.598Z,1.00
2022-07-28T18:19:29.404Z,1.00
2022-07-28T18:21:56.734Z,1.00
2022-07-28T18:24:24.607Z,1.00
2022-07-28T18:26:52.377Z,1.00
2022-07-28T18:29:21.611Z,1.00
2022-07-28T18:31:53.341Z,1.00
2022-07-28T18:34:24.798Z,1.00
2022-07-28T18:36:52.533Z,1.00
2022-07-28T18:39:20.136Z,1.00
2022-07-28T18:41:48.036Z,1.00
2022-07-28T18:44:17.551Z,1.00
2022-07-28T18:46:45.464Z,1.00
2022-07-28T18:49:12.652Z,1.00
2022-07-28T18:51:45.511Z,1.00
2022-07-28T18:54:21.493Z,1.00
2022-07-28T18:56:54.228Z,1.00
2022-07-28T18:59:22.601Z,1.00
2022-07-28T19:01:50.062Z,1.00
2022-07-28T19:04:17.329Z,1.00
2022-07-28T19:06:44.500Z,1.00
2022-07-28T19:09:12.064Z,1.00
2022-07-28T19:11:45.363Z,1.00
2022-07-28T19:14:13.758Z,1.00
2022-07-28T19:16:40.886Z,1.00
2022-07-28T19:19:07.903Z,1.00
2022-07-28T19:21:35.357Z,1.00
2022-07-28T19:24:02.465Z,1.00
2022-07-28T19:26:29.389Z,1.00
2022-07-28T19:28:56.583Z,1.00
2022-07-28T19:31:23.953Z,1.00
2022-07-28T19:33:52.077Z,1.00
2022-07-28T19:36:20.199Z,1.00
2022-07-28T19:38:48.328Z,1.00
2022-07-28T19:41:16.453Z,1.00
2022-07-28T19:43:43.841Z,1.00
2022-07-28T19:46:10.959Z,1.00
2022-07-28T19:48:38.331Z,1.00
2022-07-28T19:51:06.512Z,6.90
2022-07-28T19:53:35.075Z,18.20
2022-07-28T19:56:03.849Z,28.00
2022-07-28T19:58:34.627Z,45.50
2022-07-28T20:01:03.991Z,67.70
2022-07-28T20:04:02.479Z,80.70
2022-07-28T20:06:18.261Z,96.90
2022-07-28T20:08:52.752Z,99.90
2022-07-28T20:11:19.788Z,99.90
2022-07-28T20:13:48.184Z,99.90
2022-07-28T20:16:15.943Z,99.90
2022-07-28T20:18:43.166Z,99.90
2022-07-28T20:21:10.421Z,99.90
2022-07-28T20:23:38.942Z,99.90
2022-07-28T20:26:06.189Z,99.90
2022-07-28T20:28:33.520Z,99.90
2022-07-28T20:31:00.588Z,99.90
2022-07-28T20:33:27.733Z,99.90
2022-07-28T20:35:54.637Z,99.90
2022-07-28T20:38:23.467Z,99.90
2022-07-28T20:40:52.128Z,99.90
2022-07-28T20:43:19.005Z,99.90
2022-07-28T20:45:46.594Z,99.90
2022-07-28T20:48:15.453Z,99.90
2022-07-28T20:50:42.980Z,99.90
2022-07-28T20:53:10.552Z,99.90
2022-07-28T20:55:37.830Z,99.90
2022-07-28T20:58:06.177Z,99.90
2022-07-28T21:00:33.567Z,99.90
2022-07-28T21:03:01.747Z,99.90
2022-07-28T21:05:35.992Z,99.90
2022-07-28T21:08:05.943Z,99.90
2022-07-28T21:10:34.065Z,99.90
2022-07-28T21:13:01.130Z,99.90
2022-07-28T21:15:28.201Z,99.90
2022-07-28T21:17:57.076Z,99.90
2022-07-28T21:20:24.576Z,99.90
2022-07-28T21:22:52.162Z,99.90
2022-07-28T21:25:19.515Z,99.90
2022-07-28T21:28:05.320Z,99.90
2022-07-28T21:30:32.977Z,99.90
2022-07-28T21:32:59.934Z,99.90
2022-07-28T21:35:27.098Z,99.90
2022-07-28T21:37:54.157Z,1.00
2022-07-28T21:40:21.242Z,1.00
2022-07-28T21:42:48.337Z,1.00
2022-07-28T21:45:15.402Z,1.00
2022-07-28T21:47:42.409Z,1.00
2022-07-28T21:50:10.071Z,1.00
2022-07-28T21:52:38.110Z,1.00
2022-07-28T21:55:07.696Z,1.00
2022-07-28T21:57:35.073Z,1.00
2022-07-28T22:00:02.383Z,1.00
2022-07-28T22:02:29.303Z,1.00
2022-07-28T22:04:56.284Z,1.00
2022-07-28T22:07:24.195Z,1.00
2022-07-28T22:09:51.087Z,1.00
2022-07-28T22:12:18.034Z,1.00
2022-07-28T22:14:44.987Z,1.00
2022-07-28T22:17:11.932Z,1.00
2022-07-28T22:19:39.356Z,1.00
2022-07-28T22:22:06.676Z,1.00
2022-07-28T22:24:33.638Z,1.00
2022-07-28T22:27:00.630Z,1.00
2022-07-28T22:29:30.975Z,1.00
2022-07-28T22:31:59.465Z,1.00
2022-07-28T22:34:28.007Z,1.00
2022-07-28T22:36:55.469Z,1.00
2022-07-28T22:39:22.419Z,1.00
2022-07-28T22:41:49.467Z,1.00
2022-07-28T22:44:16.885Z,1.00
2022-07-28T22:46:44.485Z,1.00
2022-07-28T22:49:11.564Z,1.00
2022-07-28T22:51:38.561Z,1.00
2022-07-28T22:54:05.667Z,1.00
2022-07-28T22:56:51.301Z,1.00
2022-07-28T22:59:18.413Z,1.00
2022-07-28T23:01:45.510Z,1.00
2022-07-28T23:04:15.716Z,1.00
2022-07-28T23:06:43.070Z,1.00
2022-07-28T23:09:12.301Z,1.00
2022-07-28T23:11:39.510Z,1.00
2022-07-28T23:14:06.524Z,1.00
2022-07-28T23:16:33.648Z,1.00
2022-07-28T23:19:00.681Z,1.00
2022-07-28T23:21:27.786Z,1.00
2022-07-28T23:23:54.918Z,1.00
2022-07-28T23:26:22.030Z,1.00
2022-07-28T23:28:49.137Z,1.00
2022-07-28T23:31:16.248Z,1.00
2022-07-28T23:33:56.494Z,1.00
2022-07-28T23:36:26.638Z,1.00
2022-07-28T23:38:57.177Z,1.00
2022-07-28T23:41:25.338Z,1.00
2022-07-28T23:43:53.057Z,1.00
2022-07-28T23:46:20.474Z,1.00
2022-07-28T23:48:48.042Z,1.00
2022-07-28T23:51:15.143Z,1.00
2022-07-28T23:53:42.459Z,1.00
2022-07-28T23:56:09.585Z,1.00
2022-07-28T23:58:36.631Z,1.00
